Wetterdaten: aktuell Montag, 04.05.2026 20:00
Datum Zeit Temp. A. Feuchte A. Luftdruck Regen Wind Richtung Richtung Sonnenschein Solar Windböen
04.05.2026 20:00 16,9 °C 71 % 1012,8 hPa 0,0 l/m² 0,0 km/h (0 Bft) NW 307 ° 15 min 0 W/m² 0,0 km/h (0 Bft)
04.05.2026 19:00 20,1 °C 61 % 1012,5 hPa 0,0 l/m² 0,9 km/h (0 Bft) NW 307 ° 0 min 26 W/m² 4,8 km/h (1 Bft)
04.05.2026 18:00 21,0 °C 56 % 1012,4 hPa 0,0 l/m² 4,7 km/h (1 Bft) NW 315 ° 0 min 65 W/m² 12,9 km/h (3 Bft)
04.05.2026 17:00 21,4 °C 56 % 1012,5 hPa 0,0 l/m² 7,4 km/h (2 Bft) W-NW 300 ° 0 min 153 W/m² 20,9 km/h (4 Bft)
04.05.2026 16:00 22,2 °C 56 % 1012,6 hPa 0,0 l/m² 9,3 km/h (2 Bft) NW 308 ° 15 min 183 W/m² 20,9 km/h (4 Bft)
04.05.2026 15:00 24,4 °C 46 % 1012,6 hPa 0,0 l/m² 7,3 km/h (2 Bft) W-NW 282 ° 30 min 534 W/m² 19,3 km/h (3 Bft)
04.05.2026 14:00 22,1 °C 48 % 1012,9 hPa 0,0 l/m² 5,5 km/h (1 Bft) N 5 ° 15 min 323 W/m² 12,9 km/h (3 Bft)
04.05.2026 13:00 23,3 °C 45 % 1013,2 hPa 0,0 l/m² 5,7 km/h (1 Bft) N-NW 341 ° 30 min 416 W/m² 12,9 km/h (3 Bft)
04.05.2026 12:00 22,8 °C 48 % 1013,8 hPa 0,0 l/m² 5,0 km/h (1 Bft) S-SW 211 ° 45 min 478 W/m² 12,9 km/h (3 Bft)
04.05.2026 11:00 21,4 °C 49 % 1014,6 hPa 0,0 l/m² 4,9 km/h (1 Bft) SW 215 ° 30 min 398 W/m² 11,3 km/h (2 Bft)
04.05.2026 10:00 21,6 °C 48 % 1014,9 hPa 0,0 l/m² 3,5 km/h (1 Bft) W-SW 254 ° 45 min 386 W/m² 11,3 km/h (2 Bft)
04.05.2026 09:00 18,3 °C 55 % 1014,7 hPa 0,0 l/m² 5,6 km/h (1 Bft) S 174 ° 15 min 492 W/m² 12,9 km/h (3 Bft)
04.05.2026 08:00 17,0 °C 56 % 1014,7 hPa 0,0 l/m² 5,7 km/h (1 Bft) S-SO 150 ° 30 min 253 W/m² 12,9 km/h (3 Bft)
04.05.2026 07:00 16,1 °C 59 % 1014,7 hPa 0,0 l/m² 2,1 km/h (1 Bft) W-SW 251 ° 0 min 67 W/m² 8,0 km/h (2 Bft)
04.05.2026 06:00 14,5 °C 66 % 1014,0 hPa 0,0 l/m² 1,8 km/h (1 Bft) O 86 ° 0 min 82 W/m² 4,8 km/h (1 Bft)
04.05.2026 05:00 14,2 °C 65 % 1013,3 hPa 0,0 l/m² 1,7 km/h (1 Bft) O 86 ° 0 min 7 W/m² 4,8 km/h (1 Bft)
04.05.2026 04:00 15,1 °C 60 % 1013,9 hPa 0,0 l/m² 1,0 km/h (0 Bft) O-SO 109 ° 0 min 0 W/m² 4,8 km/h (1 Bft)
04.05.2026 03:00 16,1 °C 56 % 1013,8 hPa 0,0 l/m² 1,3 km/h (1 Bft) O-SO 109 ° 0 min 0 W/m² 6,4 km/h (2 Bft)
04.05.2026 02:00 16,8 °C 53 % 1013,6 hPa 0,0 l/m² 10,5 km/h (2 Bft) S-SW 207 ° 0 min 0 W/m² 19,3 km/h (3 Bft)
04.05.2026 01:00 17,3 °C 52 % 1013,3 hPa 0,0 l/m² 10,7 km/h (2 Bft) S-SW 198 ° 0 min 0 W/m² 19,3 km/h (3 Bft)
04.05.2026 00:00 18,3 °C 49 % 1013,4 hPa 0,0 l/m² 9,8 km/h (2 Bft) W-SW 257 ° 0 min 0 W/m² 24,1 km/h (4 Bft)
03.05.2026 23:00 19,3 °C 47 % 1012,5 hPa 0,0 l/m² 16,7 km/h (3 Bft) S-SO 157 ° 0 min 0 W/m² 32,2 km/h (5 Bft)
03.05.2026 22:00 19,9 °C 46 % 1012,5 hPa 0,0 l/m² 17,4 km/h (3 Bft) S 177 ° 0 min 0 W/m² 33,8 km/h (5 Bft)
03.05.2026 21:00 20,8 °C 44 % 1012,7 hPa 0,0 l/m² 13,9 km/h (3 Bft) SO 140 ° 0 min 0 W/m² 22,5 km/h (4 Bft)
_ Min-Zeit 05:00 12:45 18:30 - 05:30 - - - - 05:30
Minimum _ 14,1 °C 43 % 1012,3 hPa - 0,0 km/h (0 Bft) - - - - 0,0 km/h (0 Bft)
_ Max-Zeit 15:15 20:00 09:30 21:00 22:30 - - 07:30 10:45 22:45
Maximum _ 24,7 °C 71 % 1015,0 hPa 0,0 l/m² 18,1 km/h
S-SO (3 Bft)
- - 15 min 763 W/m² 40,2 km/h
S-SO (6 Bft)
Durchschnitt _ 19,3 °C 53 % 1013,4 hPa #0,0 l/m² 7,0 km/h (2 Bft) S - #4:30 h 205 W/m² 15,7 km/h (3 Bft)